createdAt,value
2019-01-14T00:01:21.361Z,12.53
2019-01-14T00:03:52.187Z,12.30
2019-01-14T00:06:22.485Z,6.97
2019-01-14T00:08:54.053Z,6.66
2019-01-14T00:11:24.717Z,8.87
2019-01-14T00:13:56.859Z,8.85
2019-01-14T00:16:28.995Z,7.13
2019-01-14T00:19:01.126Z,7.15
2019-01-14T00:21:32.570Z,7.83
2019-01-14T00:24:05.022Z,8.45
2019-01-14T00:26:35.339Z,6.30
2019-01-14T00:29:06.113Z,5.37
2019-01-14T00:31:36.412Z,9.77
2019-01-14T00:34:08.881Z,7.93
2019-01-14T00:36:39.259Z,8.27
2019-01-14T00:39:15.817Z,7.83
2019-01-14T00:41:46.291Z,10.60
2019-01-14T00:44:20.132Z,9.50
2019-01-14T00:46:50.410Z,10.47
2019-01-14T00:49:23.558Z,7.53
2019-01-14T00:51:53.873Z,9.33
2019-01-14T00:54:24.198Z,10.20
2019-01-14T00:56:54.916Z,7.20
2019-01-14T00:59:25.226Z,11.17
2019-01-14T01:01:55.834Z,17.10
2019-01-14T01:04:26.317Z,12.13
2019-01-14T01:06:56.870Z,19.48
2019-01-14T01:09:27.342Z,10.30
2019-01-14T01:11:57.939Z,9.75
2019-01-14T01:14:28.319Z,12.47
2019-01-14T01:16:59.225Z,13.30
2019-01-14T01:19:29.586Z,11.20
2019-01-14T01:21:59.919Z,12.07
2019-01-14T01:24:30.271Z,14.17
2019-01-14T01:27:00.670Z,14.90
2019-01-14T01:29:31.050Z,15.17
2019-01-14T01:32:05.953Z,14.03
2019-01-14T01:34:36.303Z,23.87
2019-01-14T01:37:13.140Z,18.52
2019-01-14T01:39:40.778Z,22.97
2019-01-14T01:42:12.246Z,17.45
2019-01-14T01:44:42.880Z,28.65
2019-01-14T01:47:17.702Z,18.43
2019-01-14T01:49:48.192Z,24.83
2019-01-14T01:52:18.638Z,19.83
2019-01-14T01:54:48.959Z,27.47
2019-01-14T01:57:19.489Z,24.73
2019-01-14T01:59:50.250Z,33.63
2019-01-14T02:02:20.624Z,23.43
2019-01-14T02:04:52.360Z,30.10
2019-01-14T02:07:22.673Z,33.53
2019-01-14T02:09:54.487Z,14.93
2019-01-14T02:12:27.374Z,26.67
2019-01-14T02:14:57.681Z,27.95
2019-01-14T02:17:29.752Z,26.13
2019-01-14T02:20:00.234Z,15.18
2019-01-14T02:22:30.592Z,25.67
2019-01-14T02:25:00.954Z,19.20
2019-01-14T02:27:31.835Z,22.33
2019-01-14T02:30:02.355Z,21.55
2019-01-14T02:32:32.768Z,26.50
2019-01-14T02:35:05.311Z,23.57
2019-01-14T02:37:35.592Z,28.23
2019-01-14T02:40:11.033Z,25.44
2019-01-14T02:42:41.349Z,20.97
2019-01-14T02:45:14.261Z,24.25
2019-01-14T02:47:44.599Z,33.23
2019-01-14T02:50:21.371Z,29.37
2019-01-14T02:52:51.639Z,20.60
2019-01-14T02:55:22.020Z,20.75
2019-01-14T02:57:52.820Z,27.73
2019-01-14T03:00:26.300Z,34.13
2019-01-14T03:02:57.563Z,25.63
2019-01-14T03:05:28.499Z,18.80
2019-01-14T03:07:58.804Z,25.33
2019-01-14T03:10:30.815Z,24.55
2019-01-14T03:13:01.150Z,17.10
2019-01-14T03:15:32.148Z,27.37
2019-01-14T03:18:05.625Z,24.73
2019-01-14T03:20:37.205Z,28.63
2019-01-14T03:23:09.992Z,19.73
2019-01-14T03:25:44.636Z,25.58
2019-01-14T03:28:15.115Z,22.83
2019-01-14T03:30:47.039Z,23.33
2019-01-14T03:33:17.370Z,23.70
2019-01-14T03:35:49.934Z,29.67
2019-01-14T03:38:20.335Z,17.27
2019-01-14T03:40:50.915Z,29.83
2019-01-14T03:43:21.965Z,19.37
2019-01-14T03:45:52.511Z,25.17
2019-01-14T03:48:23.087Z,13.47
2019-01-14T03:50:53.390Z,17.33
2019-01-14T03:53:23.979Z,24.18
2019-01-14T03:55:54.373Z,25.13
2019-01-14T03:58:28.066Z,18.57
2019-01-14T04:00:58.417Z,28.17
2019-01-14T04:03:29.048Z,22.60
2019-01-14T04:05:59.378Z,23.30
2019-01-14T04:08:29.714Z,23.73
2019-01-14T04:11:00.014Z,23.87
2019-01-14T04:13:30.398Z,17.60
2019-01-14T04:16:01.035Z,23.50
2019-01-14T04:18:31.356Z,20.80
2019-01-14T04:21:01.677Z,18.23
2019-01-14T04:23:33.171Z,21.95
2019-01-14T04:26:04.028Z,28.02
2019-01-14T04:28:37.714Z,38.30
2019-01-14T04:31:08.037Z,35.08
2019-01-14T04:33:38.695Z,39.83
2019-01-14T04:36:08.989Z,30.63
2019-01-14T04:38:40.993Z,35.25
2019-01-14T04:41:11.254Z,37.03
2019-01-14T04:43:41.668Z,32.67
2019-01-14T04:46:12.335Z,24.43
2019-01-14T04:48:42.823Z,33.63
2019-01-14T04:51:15.174Z,20.47
2019-01-14T04:53:45.132Z,24.50
2019-01-14T04:56:15.839Z,30.27
2019-01-14T04:58:46.119Z,27.80
2019-01-14T05:01:16.622Z,25.40
2019-01-14T05:03:47.194Z,22.50
2019-01-14T05:06:17.822Z,25.40
2019-01-14T05:08:51.845Z,18.03
2019-01-14T05:11:22.711Z,20.85
2019-01-14T05:13:57.817Z,21.30
2019-01-14T05:16:28.801Z,23.02
2019-01-14T05:19:02.417Z,21.40
2019-01-14T05:21:33.118Z,34.10
2019-01-14T05:24:25.274Z,12.17
2019-01-14T05:26:39.447Z,19.30
2019-01-14T05:29:09.907Z,29.87
2019-01-14T05:31:41.990Z,19.23
2019-01-14T05:34:12.433Z,20.23
2019-01-14T05:36:42.961Z,17.00
2019-01-14T05:39:13.555Z,25.77
2019-01-14T05:41:46.715Z,20.23
2019-01-14T05:44:17.119Z,19.03
2019-01-14T05:46:56.736Z,15.80
2019-01-14T05:49:26.696Z,18.87
2019-01-14T05:52:01.506Z,18.17
2019-01-14T05:54:31.731Z,22.67
2019-01-14T05:57:02.162Z,24.20
2019-01-14T05:59:32.486Z,19.97
2019-01-14T06:02:03.055Z,20.85
2019-01-14T06:04:33.361Z,20.97
2019-01-14T06:07:04.311Z,13.72
2019-01-14T06:09:35.767Z,20.40
2019-01-14T06:12:06.079Z,22.40
2019-01-14T06:14:43.301Z,12.63
2019-01-14T06:17:14.516Z,31.85
2019-01-14T06:19:48.745Z,28.20
2019-01-14T06:22:20.709Z,28.03
2019-01-14T06:25:02.040Z,34.20
2019-01-14T06:27:32.440Z,38.40
2019-01-14T06:30:02.748Z,34.20
2019-01-14T06:32:35.044Z,19.62
2019-01-14T06:35:05.993Z,26.73
2019-01-14T06:37:37.885Z,31.40
2019-01-14T06:40:10.039Z,21.43
2019-01-14T06:42:42.700Z,22.62
2019-01-14T06:45:13.491Z,27.30
2019-01-14T06:47:54.057Z,26.77
2019-01-14T06:50:24.735Z,28.20
2019-01-14T06:52:56.637Z,41.60
2019-01-14T06:55:27.037Z,30.97
2019-01-14T06:57:57.673Z,38.65
2019-01-14T07:00:28.990Z,32.47
2019-01-14T07:02:59.289Z,34.60
2019-01-14T07:05:29.994Z,30.03
2019-01-14T07:08:03.387Z,28.12
2019-01-14T07:10:33.805Z,34.17
2019-01-14T07:13:05.711Z,28.70
2019-01-14T07:15:43.153Z,27.27
2019-01-14T07:18:15.103Z,32.90
2019-01-14T07:20:46.573Z,41.33
2019-01-14T07:23:18.869Z,24.55
2019-01-14T07:25:55.804Z,27.27
2019-01-14T07:28:27.595Z,40.80
2019-01-14T07:30:59.514Z,31.57
2019-01-14T07:33:29.867Z,26.13
2019-01-14T07:36:00.217Z,29.33
2019-01-14T07:38:31.833Z,37.25
2019-01-14T07:41:02.356Z,41.33
2019-01-14T07:43:33.995Z,34.77
2019-01-14T07:46:04.275Z,32.58
2019-01-14T07:48:39.264Z,37.30
2019-01-14T07:51:09.575Z,27.10
2019-01-14T07:53:48.039Z,25.88
2019-01-14T07:56:18.703Z,20.17
2019-01-14T07:58:55.349Z,24.05
2019-01-14T08:01:24.894Z,18.03
2019-01-14T08:04:00.150Z,21.18
2019-01-14T08:06:30.623Z,15.80
2019-01-14T08:09:01.849Z,15.66
2019-01-14T08:11:33.667Z,10.60
2019-01-14T08:14:05.948Z,11.18
2019-01-14T08:16:38.530Z,14.03
2019-01-14T08:19:08.822Z,16.93
2019-01-14T08:21:41.045Z,28.17
2019-01-14T08:24:13.975Z,28.43
2019-01-14T08:26:46.663Z,25.57
2019-01-14T08:29:18.164Z,23.70
2019-01-14T08:31:49.837Z,22.52
2019-01-14T08:34:21.087Z,19.07
2019-01-14T08:36:51.422Z,16.80
2019-01-14T08:39:24.792Z,17.47
2019-01-14T08:42:00.309Z,24.33
2019-01-14T08:44:42.960Z,19.30
2019-01-14T08:47:13.815Z,26.93
2019-01-14T08:49:45.484Z,22.06
2019-01-14T08:52:15.862Z,19.13
2019-01-14T08:54:46.450Z,23.50
2019-01-14T08:57:16.758Z,22.00
2019-01-14T08:59:49.553Z,16.93
2019-01-14T09:02:19.903Z,11.60
2019-01-14T09:04:52.835Z,17.60
2019-01-14T09:07:23.123Z,24.17
2019-01-14T09:09:55.009Z,30.82
2019-01-14T09:12:27.190Z,30.60
2019-01-14T09:15:00.249Z,22.22
2019-01-14T09:17:30.574Z,15.77
2019-01-14T09:20:01.496Z,19.33
2019-01-14T09:22:31.836Z,22.57
2019-01-14T09:25:03.705Z,23.60
2019-01-14T09:27:34.110Z,24.47
2019-01-14T09:30:09.579Z,26.12
2019-01-14T09:32:40.168Z,28.57
2019-01-14T09:35:12.906Z,20.70
2019-01-14T09:37:43.408Z,30.97
2019-01-14T09:40:17.206Z,16.83
2019-01-14T09:42:47.675Z,21.60
2019-01-14T09:45:18.029Z,26.00
2019-01-14T09:47:56.170Z,24.70
2019-01-14T09:50:26.484Z,22.27
2019-01-14T09:52:56.767Z,22.20
2019-01-14T09:55:29.810Z,16.40
2019-01-14T09:58:03.506Z,19.97
2019-01-14T10:00:32.596Z,23.00
2019-01-14T10:03:03.042Z,16.07
2019-01-14T10:05:34.652Z,21.30
2019-01-14T10:08:05.695Z,23.07
2019-01-14T10:10:36.012Z,19.30
2019-01-14T10:13:06.385Z,9.83
2019-01-14T10:15:37.040Z,11.80
2019-01-14T10:18:07.604Z,14.93
2019-01-14T10:20:40.232Z,9.80
2019-01-14T10:23:10.524Z,8.30
2019-01-14T10:25:40.865Z,8.20
2019-01-14T10:28:15.426Z,11.47
2019-01-14T10:30:46.665Z,8.13
2019-01-14T10:33:17.327Z,8.17
2019-01-14T10:35:47.610Z,12.07
2019-01-14T10:38:18.024Z,10.27
2019-01-14T10:40:50.374Z,14.87
2019-01-14T10:43:20.975Z,12.93
2019-01-14T10:45:51.359Z,13.37
2019-01-14T10:48:23.068Z,13.17
2019-01-14T10:50:53.358Z,10.20
2019-01-14T10:53:23.858Z,11.77
2019-01-14T10:55:54.476Z,12.83
2019-01-14T10:58:26.506Z,18.57
2019-01-14T11:00:58.398Z,11.37
2019-01-14T11:03:31.075Z,11.55
2019-01-14T11:06:01.597Z,10.57
2019-01-14T11:08:33.888Z,9.63
2019-01-14T11:11:04.745Z,11.90
2019-01-14T11:13:35.033Z,12.13
2019-01-14T11:16:05.685Z,11.67
2019-01-14T11:18:38.644Z,11.23
2019-01-14T11:21:08.930Z,12.70
2019-01-14T11:23:39.407Z,14.60
2019-01-14T11:26:14.271Z,12.50
2019-01-14T11:28:48.350Z,10.53
2019-01-14T11:31:21.115Z,14.35
2019-01-14T11:33:51.581Z,10.20
2019-01-14T11:36:23.590Z,10.20
2019-01-14T11:38:54.048Z,9.60
2019-01-14T11:41:25.477Z,12.87
2019-01-14T11:43:55.820Z,8.77
2019-01-14T11:46:28.226Z,14.18
2019-01-14T11:48:58.388Z,11.93
2019-01-14T11:51:29.116Z,12.83
2019-01-14T11:53:59.388Z,9.73
2019-01-14T11:56:29.860Z,12.63
2019-01-14T11:59:00.092Z,13.00
2019-01-14T12:01:31.267Z,12.40
2019-01-14T12:04:01.874Z,11.93
2019-01-14T12:06:35.706Z,14.32
2019-01-14T12:09:12.368Z,10.30
2019-01-14T12:11:42.403Z,8.98
2019-01-14T12:14:12.733Z,11.70
2019-01-14T12:16:43.359Z,8.73
2019-01-14T12:19:13.682Z,8.07
2019-01-14T12:21:45.344Z,10.30
2019-01-14T12:24:15.897Z,6.90
2019-01-14T12:26:46.492Z,7.83
2019-01-14T12:29:18.623Z,11.17
2019-01-14T12:31:49.639Z,13.33
2019-01-14T12:34:19.925Z,6.70
2019-01-14T12:36:51.858Z,5.67
2019-01-14T12:39:22.446Z,9.13
2019-01-14T12:41:52.852Z,8.57
2019-01-14T12:44:23.446Z,10.40
2019-01-14T12:46:53.872Z,15.00
2019-01-14T12:49:24.296Z,17.33
2019-01-14T12:51:54.927Z,12.87
2019-01-14T12:54:25.610Z,12.60
2019-01-14T12:57:01.571Z,11.93
2019-01-14T12:59:33.389Z,10.20
2019-01-14T13:02:03.717Z,14.17
2019-01-14T13:04:34.152Z,10.73
2019-01-14T13:07:04.572Z,18.03
2019-01-14T13:09:35.135Z,18.67
2019-01-14T13:12:05.906Z,20.77
2019-01-14T13:14:36.603Z,14.73
2019-01-14T13:17:07.219Z,13.03
2019-01-14T13:19:41.556Z,11.40
2019-01-14T13:22:12.107Z,8.57
2019-01-14T13:24:44.577Z,16.23
2019-01-14T13:27:15.740Z,12.70
2019-01-14T13:29:48.904Z,13.90
2019-01-14T13:32:19.462Z,14.50
2019-01-14T13:34:50.675Z,12.13
2019-01-14T13:37:23.353Z,14.10
2019-01-14T13:39:55.228Z,17.82
2019-01-14T13:42:25.616Z,12.83
2019-01-14T13:44:57.041Z,17.35
2019-01-14T13:47:28.585Z,7.90
2019-01-14T13:49:59.025Z,9.57
2019-01-14T13:52:29.645Z,12.33
2019-01-14T13:55:00.965Z,11.30
2019-01-14T13:57:31.474Z,7.77
2019-01-14T14:00:01.922Z,8.70
2019-01-14T14:02:33.658Z,11.17
2019-01-14T14:05:06.394Z,10.27
2019-01-14T14:07:36.993Z,11.57
2019-01-14T14:10:09.982Z,15.97
2019-01-14T14:12:40.356Z,13.83
2019-01-14T14:15:13.589Z,10.03
2019-01-14T14:17:45.054Z,10.57
2019-01-14T14:20:16.499Z,7.63
2019-01-14T14:22:47.100Z,9.18
2019-01-14T14:25:17.537Z,6.23
2019-01-14T14:27:51.458Z,7.35
2019-01-14T14:30:24.635Z,11.17
2019-01-14T14:32:55.153Z,8.33
2019-01-14T14:35:25.495Z,12.00
2019-01-14T14:38:00.959Z,19.87
2019-01-14T14:40:28.196Z,11.17
2019-01-14T14:42:58.862Z,13.83
2019-01-14T14:45:29.617Z,10.90
2019-01-14T14:48:06.062Z,9.57
2019-01-14T14:50:37.977Z,8.87
2019-01-14T14:53:08.276Z,7.60
2019-01-14T14:55:39.952Z,14.27
2019-01-14T14:58:12.883Z,9.03
2019-01-14T15:00:44.845Z,8.35
2019-01-14T15:03:15.323Z,7.37
2019-01-14T15:05:48.107Z,13.68
2019-01-14T15:08:21.641Z,12.27
2019-01-14T15:10:52.207Z,7.63
2019-01-14T15:13:23.534Z,9.30
2019-01-14T15:15:54.898Z,5.47
2019-01-14T15:18:31.466Z,9.80
2019-01-14T15:21:02.529Z,3.42
2019-01-14T15:23:39.676Z,10.10
2019-01-14T15:26:08.762Z,6.35
2019-01-14T15:28:39.138Z,8.37
2019-01-14T15:31:09.587Z,10.47
2019-01-14T15:33:39.995Z,8.47
2019-01-14T15:36:10.735Z,8.90
2019-01-14T15:38:41.146Z,16.00
2019-01-14T15:41:11.861Z,6.30
2019-01-14T15:43:42.521Z,4.83
2019-01-14T15:46:13.940Z,7.50
2019-01-14T15:48:44.392Z,5.63
2019-01-14T15:51:16.413Z,9.74
2019-01-14T15:53:51.638Z,7.33
2019-01-14T15:56:22.463Z,8.40
2019-01-14T15:58:53.463Z,10.10
2019-01-14T16:01:23.835Z,9.73
2019-01-14T16:03:55.123Z,9.60
2019-01-14T16:06:26.853Z,6.23
2019-01-14T16:08:57.523Z,5.63
2019-01-14T16:11:30.447Z,6.53
2019-01-14T16:14:01.190Z,7.55
2019-01-14T16:16:33.399Z,6.07
2019-01-14T16:19:04.062Z,4.73
2019-01-14T16:21:34.575Z,7.93
2019-01-14T16:24:06.172Z,12.30
2019-01-14T16:26:36.813Z,10.37
2019-01-14T16:29:08.166Z,8.05
2019-01-14T16:31:38.531Z,10.37
2019-01-14T16:34:09.231Z,4.07
2019-01-14T16:36:40.197Z,11.93
2019-01-14T16:39:10.658Z,5.53
2019-01-14T16:41:41.068Z,6.90
2019-01-14T16:44:12.107Z,7.00
2019-01-14T16:46:42.539Z,12.10
2019-01-14T16:49:13.055Z,12.28
2019-01-14T16:51:43.599Z,9.60
2019-01-14T16:54:16.444Z,12.58
2019-01-14T16:56:46.967Z,7.40
2019-01-14T16:59:17.790Z,7.57
2019-01-14T17:01:48.082Z,8.47
2019-01-14T17:04:18.837Z,10.27
2019-01-14T17:06:49.177Z,12.67
2019-01-14T17:09:22.268Z,14.27
2019-01-14T17:11:52.611Z,7.93
2019-01-14T17:14:22.973Z,11.77
2019-01-14T17:16:56.008Z,9.63
2019-01-14T17:19:26.346Z,12.07
2019-01-14T17:21:57.135Z,9.95
2019-01-14T17:24:42.517Z,10.83
2019-01-14T17:27:16.812Z,10.83
2019-01-14T17:29:47.048Z,7.90
2019-01-14T17:35:06.478Z,9.47
2019-01-14T17:37:37.094Z,9.83
2019-01-14T17:40:10.820Z,11.85
2019-01-14T17:42:41.176Z,12.10
2019-01-14T17:45:12.225Z,10.53
2019-01-14T17:47:44.261Z,8.97
2019-01-14T17:50:18.971Z,9.35
2019-01-14T17:52:50.362Z,12.43
2019-01-14T17:55:24.765Z,17.70
2019-01-14T17:57:55.239Z,13.50
2019-01-14T18:00:28.910Z,17.73
2019-01-14T18:03:01.139Z,21.37
2019-01-14T18:05:31.905Z,10.88
2019-01-14T18:13:16.372Z,10.70
2019-01-14T18:15:46.731Z,9.77
2019-01-14T18:18:17.265Z,11.85
2019-01-14T18:20:47.603Z,10.10
2019-01-14T18:23:18.299Z,9.35
2019-01-14T18:25:48.704Z,9.10
2019-01-14T18:28:20.745Z,10.73
2019-01-14T18:30:52.740Z,16.10
2019-01-14T18:33:26.613Z,12.73
2019-01-14T18:35:57.078Z,10.10
2019-01-14T18:38:28.717Z,10.00
2019-01-14T18:40:59.146Z,8.70
2019-01-14T18:43:29.616Z,9.93
2019-01-14T18:46:00.092Z,13.07
2019-01-14T18:48:31.747Z,13.58
2019-01-14T18:51:02.110Z,9.53
2019-01-14T18:53:33.870Z,11.83
2019-01-14T18:56:20.873Z,11.90
2019-01-14T18:58:40.665Z,9.58
2019-01-14T19:01:11.204Z,9.57
2019-01-14T19:03:41.726Z,8.13
2019-01-14T19:06:12.247Z,6.27
2019-01-14T19:08:45.711Z,9.80
2019-01-14T19:11:16.320Z,7.10
2019-01-14T19:13:49.289Z,9.33
2019-01-14T19:16:21.197Z,7.27
2019-01-14T19:18:53.093Z,7.92
2019-01-14T19:21:23.384Z,7.73
2019-01-14T19:23:53.970Z,7.67
2019-01-14T19:26:28.260Z,6.00
2019-01-14T19:29:02.808Z,10.77
2019-01-14T19:31:36.539Z,10.90
2019-01-14T19:34:08.805Z,7.00
2019-01-14T19:36:40.686Z,8.10
2019-01-14T19:39:11.461Z,9.70
2019-01-14T19:41:41.974Z,8.23
2019-01-14T19:44:12.341Z,9.83
2019-01-14T19:46:42.688Z,11.70
2019-01-14T19:49:14.598Z,10.83
2019-01-14T19:51:45.141Z,11.40
2019-01-14T19:54:16.686Z,6.37
2019-01-14T19:56:48.236Z,12.57
2019-01-14T19:59:18.810Z,11.20
2019-01-14T20:01:49.534Z,8.63
2019-01-14T20:04:20.095Z,6.43
2019-01-14T20:06:52.265Z,6.47
2019-01-14T20:09:24.008Z,7.43
2019-01-14T20:11:54.658Z,7.60
2019-01-14T20:14:33.258Z,11.63
2019-01-14T20:17:05.637Z,9.73
2019-01-14T20:19:41.806Z,10.73
2019-01-14T20:22:12.481Z,8.53
2019-01-14T20:24:43.154Z,7.73
2019-01-14T20:27:13.863Z,10.43
2019-01-14T20:29:44.354Z,11.47
2019-01-14T20:32:14.919Z,8.30
2019-01-14T20:34:45.413Z,13.13
2019-01-14T20:37:16.042Z,11.00
2019-01-14T20:39:46.742Z,8.67
2019-01-14T20:42:17.418Z,8.34
2019-01-14T20:44:47.777Z,7.33
2019-01-14T20:47:19.007Z,10.86
2019-01-14T20:49:50.934Z,11.47
2019-01-14T20:52:21.397Z,10.53
2019-01-14T20:54:52.006Z,9.03
2019-01-14T20:57:24.377Z,10.00
2019-01-14T20:59:54.794Z,8.17
2019-01-14T21:02:26.419Z,14.43
2019-01-14T21:04:58.640Z,8.57
2019-01-14T21:07:30.419Z,12.80
2019-01-14T21:10:00.787Z,10.00
2019-01-14T21:12:31.916Z,14.95
2019-01-14T21:15:02.700Z,14.17
2019-01-14T21:17:42.377Z,10.50
2019-01-14T21:20:21.995Z,9.63
2019-01-14T21:22:56.407Z,10.13
2019-01-14T21:25:26.862Z,17.00
2019-01-14T21:27:57.705Z,14.97
2019-01-14T21:30:28.535Z,14.30
2019-01-14T21:32:59.156Z,22.73
2019-01-14T21:35:29.552Z,17.87
2019-01-14T21:38:01.225Z,19.50
2019-01-14T21:40:31.734Z,18.93
2019-01-14T21:43:03.905Z,15.02
2019-01-14T21:45:34.307Z,19.47
2019-01-14T21:48:06.546Z,14.83
2019-01-14T21:50:36.836Z,14.33
2019-01-14T21:53:08.593Z,10.85
2019-01-14T21:55:39.060Z,13.77
2019-01-14T21:58:09.336Z,10.93
2019-01-14T22:00:39.976Z,16.80
2019-01-14T22:03:10.626Z,15.40
2019-01-14T22:05:41.570Z,12.13
2019-01-14T22:08:11.955Z,11.60
2019-01-14T22:10:42.480Z,14.13
2019-01-14T22:13:12.814Z,21.33
2019-01-14T22:15:43.498Z,19.23
2019-01-14T22:18:14.034Z,13.63
2019-01-14T22:20:44.527Z,9.73
2019-01-14T22:23:14.895Z,11.40
2019-01-14T22:25:45.671Z,8.68
2019-01-14T22:28:16.174Z,17.83
2019-01-14T22:30:47.841Z,15.23
2019-01-14T22:33:18.130Z,17.33
2019-01-14T22:35:49.223Z,16.77
2019-01-14T22:38:19.724Z,18.60
2019-01-14T22:40:50.141Z,24.60
2019-01-14T22:43:20.487Z,16.63
2019-01-14T22:45:51.999Z,19.27
2019-01-14T22:48:23.423Z,21.80
2019-01-14T22:50:53.832Z,24.33
2019-01-14T22:53:27.075Z,23.90
2019-01-14T22:55:57.211Z,22.17
2019-01-14T22:58:31.036Z,18.42
2019-01-14T23:01:44.460Z,18.50
2019-01-14T23:04:16.399Z,21.17
2019-01-14T23:06:49.565Z,16.47
2019-01-14T23:09:23.333Z,18.30
2019-01-14T23:11:53.783Z,16.00
2019-01-14T23:14:26.452Z,15.63
2019-01-14T23:16:56.783Z,14.47
2019-01-14T23:19:27.395Z,18.83
2019-01-14T23:21:58.792Z,18.97
2019-01-14T23:24:30.481Z,19.93
2019-01-14T23:27:00.875Z,21.50
2019-01-14T23:29:31.720Z,17.03
2019-01-14T23:32:02.408Z,18.33
2019-01-14T23:34:32.699Z,21.73
2019-01-14T23:37:03.681Z,18.23
2019-01-14T23:39:33.990Z,21.60
2019-01-14T23:42:05.170Z,19.17
2019-01-14T23:44:35.578Z,26.57
2019-01-14T23:47:10.480Z,20.62
2019-01-14T23:49:41.190Z,27.57
2019-01-14T23:52:11.805Z,27.50
2019-01-14T23:54:42.177Z,20.53
2019-01-14T23:57:18.197Z,21.75
2019-01-14T23:59:48.574Z,29.20
